Time;durP1;ratioP1;P1;durP2;ratioP2;P2;SDS_P1;SDS_P2;PMS_P1;PMS_P2;Temp;Humidity;BMP_temperature;BMP_pressure;BME280_temperature;BME280_humidity;BME280_pressure;Samples;Min_cycle;Max_cycle;Signal;HPM_P1;HPM_P2
2023/07/06 00:02:24;;;;;;;0.10;0.10;;;12.60;99.90;;;;;;5106895;28;20230;-81
2023/07/06 00:04:49;;;;;;;0.20;0.20;;;12.60;99.90;;;;;;5091904;28;20272;-80
2023/07/06 00:07:21;;;;;;;0.20;0.20;;;12.70;99.90;;;;;;5089100;28;20566;-82
2023/07/06 00:09:50;;;;;;;0.20;0.20;;;12.70;99.90;;;;;;5087682;28;20197;-82
2023/07/06 00:12:22;;;;;;;0.10;0.10;;;12.70;99.90;;;;;;5090012;28;20475;-81
2023/07/06 00:14:50;;;;;;;0.10;0.10;;;12.70;99.90;;;;;;5071758;28;20939;-85
2023/07/06 00:17:17;;;;;;;0.20;0.20;;;12.70;99.90;;;;;;5087912;28;20451;-80
2023/07/06 00:19:43;;;;;;;0.10;0.10;;;12.70;99.90;;;;;;5089423;28;20462;-79
2023/07/06 00:22:10;;;;;;;0.10;0.10;;;12.70;99.90;;;;;;5112615;28;20518;-80
2023/07/06 00:24:37;;;;;;;0.10;0.10;;;12.70;99.90;;;;;;5092158;28;20470;-77
2023/07/06 00:27:03;;;;;;;0.10;0.10;;;12.70;99.90;;;;;;5093291;28;20832;-79
2023/07/06 00:29:33;;;;;;;0.20;0.20;;;12.70;99.90;;;;;;5093060;28;20443;-82
2023/07/06 00:32:26;;;;;;;0.10;0.10;;;12.70;99.90;;;;;;5076237;28;20236;-82
2023/07/06 00:34:53;;;;;;;0.20;0.20;;;12.60;99.90;;;;;;5070377;28;20434;-82
2023/07/06 00:37:21;;;;;;;0.10;0.10;;;12.60;99.90;;;;;;5087978;28;20432;-82
2023/07/06 00:39:47;;;;;;;0.10;0.10;;;12.60;99.90;;;;;;5087934;28;20466;-79
2023/07/06 00:42:19;;;;;;;0.20;0.20;;;12.60;99.90;;;;;;5079483;28;20450;-82
2023/07/06 00:44:59;;;;;;;0.17;0.17;;;12.60;99.90;;;;;;5088199;28;20889;-83
2023/07/06 00:47:33;;;;;;;0.10;0.10;;;12.60;99.90;;;;;;5089258;28;20448;-83
2023/07/06 00:50:06;;;;;;;0.10;0.10;;;12.60;99.90;;;;;;5057696;28;20439;-81
2023/07/06 00:52:33;;;;;;;0.10;0.10;;;12.60;99.90;;;;;;5094674;28;20664;-79
2023/07/06 00:55:01;;;;;;;0.10;0.10;;;12.50;99.90;;;;;;5091191;28;20446;-82
2023/07/06 00:57:28;;;;;;;0.20;0.20;;;12.50;99.90;;;;;;5072098;28;20443;-83
2023/07/06 00:59:54;;;;;;;0.10;0.10;;;12.40;99.90;;;;;;5095952;28;20442;-83
2023/07/06 01:02:20;;;;;;;0.10;0.10;;;12.40;99.90;;;;;;5075321;28;20827;-81
2023/07/06 01:04:46;;;;;;;0.20;0.20;;;12.40;99.90;;;;;;5090482;28;20449;-83
2023/07/06 01:07:22;;;;;;;0.10;0.10;;;12.40;99.90;;;;;;5068863;28;20184;-84
2023/07/06 01:09:49;;;;;;;0.20;0.20;;;12.30;99.90;;;;;;5078854;28;20188;-84
2023/07/06 01:12:16;;;;;;;0.10;0.10;;;12.20;99.90;;;;;;5086896;28;20492;-83
2023/07/06 01:14:42;;;;;;;0.20;0.20;;;12.20;99.90;;;;;;5089369;28;20961;-84
2023/07/06 01:17:18;;;;;;;0.10;0.10;;;12.20;99.90;;;;;;5082600;28;20818;-81
2023/07/06 01:20:04;;;;;;;0.10;0.10;;;12.10;99.90;;;;;;5096514;28;20435;-81
2023/07/06 01:22:50;;;;;;;0.20;0.20;;;12.10;99.90;;;;;;5089755;28;20431;-82
2023/07/06 01:25:40;;;;;;;0.20;0.20;;;12.10;99.90;;;;;;5088054;28;20442;-83
2023/07/06 01:28:27;;;;;;;0.10;0.10;;;12.10;99.90;;;;;;5084857;28;20474;-82
2023/07/06 01:31:23;;;;;;;0.10;0.10;;;12.10;99.90;;;;;;5075308;28;20544;-81
2023/07/06 01:33:55;;;;;;;0.20;0.20;;;12.00;99.90;;;;;;5094985;28;20447;-81
2023/07/06 01:36:48;;;;;;;0.10;0.10;;;12.00;99.90;;;;;;5087436;28;20423;-83
2023/07/06 01:39:22;;;;;;;0.10;0.10;;;12.00;99.90;;;;;;5088355;28;20497;-80
2023/07/06 01:42:09;;;;;;;0.20;0.20;;;12.00;99.90;;;;;;5087643;28;20492;-82
2023/07/06 01:44:37;;;;;;;0.10;0.10;;;12.00;99.90;;;;;;5093137;28;20447;-82
2023/07/06 01:47:04;;;;;;;0.20;0.20;;;12.00;99.90;;;;;;5070282;28;20445;-81
2023/07/06 01:49:30;;;;;;;0.20;0.20;;;12.00;99.90;;;;;;5073014;28;20446;-81
2023/07/06 01:52:10;;;;;;;0.20;0.20;;;12.00;99.90;;;;;;5094119;28;20515;-80
2023/07/06 01:54:42;;;;;;;0.20;0.20;;;11.90;99.90;;;;;;5071219;28;20479;-80
2023/07/06 01:57:17;;;;;;;0.20;0.20;;;12.00;99.90;;;;;;5067347;28;20908;-81
2023/07/06 01:59:46;;;;;;;0.20;0.20;;;12.00;99.90;;;;;;5090605;28;20434;-79
2023/07/06 02:02:13;;;;;;;0.10;0.10;;;12.00;99.90;;;;;;5089191;28;20443;-81
2023/07/06 02:04:43;;;;;;;0.20;0.20;;;12.00;99.90;;;;;;5088076;28;20457;-80
2023/07/06 02:07:11;;;;;;;0.20;0.20;;;12.00;99.90;;;;;;5069045;28;20449;-81
2023/07/06 02:09:48;;;;;;;0.20;0.20;;;12.00;99.90;;;;;;5075009;28;20446;-81
2023/07/06 02:12:14;;;;;;;0.10;0.10;;;12.00;99.90;;;;;;5093562;28;20508;-81
2023/07/06 02:14:42;;;;;;;0.20;0.20;;;12.00;99.90;;;;;;5073184;28;20442;-80
2023/07/06 02:17:09;;;;;;;0.20;0.20;;;12.00;99.90;;;;;;5097259;28;20215;-82
2023/07/06 02:19:36;;;;;;;0.13;0.13;;;12.00;99.90;;;;;;5087179;28;20453;-81
2023/07/06 02:22:05;;;;;;;0.20;0.20;;;12.10;99.90;;;;;;5085728;28;20484;-82
2023/07/06 02:24:31;;;;;;;0.20;0.20;;;12.10;99.90;;;;;;5090031;28;20478;-79
2023/07/06 02:26:57;;;;;;;0.20;0.20;;;12.00;99.90;;;;;;5087674;28;20459;-79
2023/07/06 02:29:22;;;;;;;0.20;0.20;;;12.10;99.90;;;;;;5094528;28;20872;-79
2023/07/06 02:31:49;;;;;;;0.10;0.10;;;12.10;99.90;;;;;;5073470;28;20216;-81
2023/07/06 02:34:21;;;;;;;0.20;0.20;;;12.10;99.90;;;;;;5069165;28;20193;-81
2023/07/06 02:36:47;;;;;;;0.20;0.20;;;12.10;99.90;;;;;;5088862;28;21291;-81
2023/07/06 02:39:12;;;;;;;0.20;0.20;;;12.10;99.90;;;;;;5096232;28;20475;-80
2023/07/06 02:41:38;;;;;;;0.20;0.20;;;12.10;99.90;;;;;;5083926;28;20242;-80
2023/07/06 02:44:03;;;;;;;0.10;0.10;;;12.20;99.90;;;;;;5065267;28;20293;-81
2023/07/06 02:46:29;;;;;;;0.10;0.10;;;12.20;99.90;;;;;;5090360;28;20185;-81
2023/07/06 02:48:55;;;;;;;0.10;0.10;;;12.20;99.90;;;;;;5091252;28;20189;-81
2023/07/06 02:51:22;;;;;;;0.20;0.20;;;12.20;99.90;;;;;;5092474;28;20209;-81
2023/07/06 02:53:47;;;;;;;0.10;0.10;;;12.30;99.90;;;;;;5098893;28;20185;-81
2023/07/06 02:56:13;;;;;;;0.10;0.10;;;12.30;99.90;;;;;;5092425;28;20470;-82
2023/07/06 02:58:38;;;;;;;0.10;0.10;;;12.30;99.90;;;;;;5072583;28;20196;-81
2023/07/06 03:01:04;;;;;;;0.10;0.10;;;12.30;99.90;;;;;;5090226;28;20276;-80
2023/07/06 03:03:30;;;;;;;0.10;0.10;;;12.30;99.90;;;;;;5092453;28;20191;-80
2023/07/06 03:05:55;;;;;;;0.10;0.10;;;12.30;99.90;;;;;;5091793;28;20192;-81
2023/07/06 03:08:21;;;;;;;0.20;0.20;;;12.30;99.90;;;;;;5092835;28;20185;-80
2023/07/06 03:10:47;;;;;;;0.20;0.20;;;12.40;99.90;;;;;;5091315;28;20254;-81
2023/07/06 03:13:13;;;;;;;0.10;0.10;;;12.40;99.90;;;;;;5088013;28;20220;-81
2023/07/06 03:15:40;;;;;;;0.10;0.10;;;12.40;99.90;;;;;;5084763;28;20446;-81
2023/07/06 03:18:06;;;;;;;0.10;0.10;;;12.40;99.90;;;;;;5091708;28;20439;-80
2023/07/06 03:20:35;;;;;;;0.10;0.10;;;12.40;99.90;;;;;;5092380;28;20427;-84
2023/07/06 03:23:02;;;;;;;0.20;0.20;;;12.40;99.90;;;;;;5089783;28;20458;-81
2023/07/06 03:25:28;;;;;;;0.10;0.10;;;12.40;99.90;;;;;;5089809;28;20478;-80
2023/07/06 03:27:54;;;;;;;0.20;0.20;;;12.40;99.90;;;;;;5099768;28;20442;-81
2023/07/06 03:30:23;;;;;;;0.10;0.10;;;12.40;99.90;;;;;;5096563;28;20487;-81
2023/07/06 03:32:49;;;;;;;0.10;0.10;;;12.40;99.90;;;;;;5091817;28;20478;-80
2023/07/06 03:35:15;;;;;;;0.10;0.10;;;12.40;99.90;;;;;;5080257;28;20432;-79
2023/07/06 03:37:45;;;;;;;0.10;0.10;;;12.40;99.90;;;;;;5102411;28;20477;-81
2023/07/06 03:40:11;;;;;;;0.10;0.10;;;12.40;99.90;;;;;;5087299;28;20457;-81
2023/07/06 03:42:39;;;;;;;0.10;0.10;;;12.40;99.90;;;;;;5085727;28;20450;-80
2023/07/06 03:45:05;;;;;;;0.20;0.20;;;12.40;99.90;;;;;;5091606;28;20449;-81
2023/07/06 03:47:33;;;;;;;0.20;0.20;;;12.40;99.90;;;;;;5104486;28;20446;-80
2023/07/06 03:49:59;;;;;;;0.10;0.10;;;12.40;99.90;;;;;;5072739;28;20505;-79
2023/07/06 03:52:24;;;;;;;0.10;0.10;;;12.40;99.90;;;;;;5076607;28;20490;-80
2023/07/06 03:54:50;;;;;;;0.10;0.10;;;12.50;99.90;;;;;;5084732;28;20443;-80
2023/07/06 03:57:16;;;;;;;0.10;0.10;;;12.50;99.90;;;;;;5085051;28;20217;-79
2023/07/06 03:59:42;;;;;;;0.10;0.10;;;12.40;99.90;;;;;;5095071;28;20669;-80
2023/07/06 04:02:09;;;;;;;0.10;0.10;;;12.40;99.90;;;;;;5090078;28;20189;-79
2023/07/06 04:04:35;;;;;;;0.10;0.10;;;12.50;99.90;;;;;;5088240;28;20462;-82
2023/07/06 04:07:01;;;;;;;0.20;0.20;;;12.50;99.90;;;;;;5070710;28;20932;-80
2023/07/06 04:09:28;;;;;;;0.20;0.20;;;12.50;99.90;;;;;;5088604;28;20191;-79
2023/07/06 04:11:54;;;;;;;0.10;0.10;;;12.50;99.90;;;;;;5099191;28;20498;-80
2023/07/06 04:14:24;;;;;;;0.10;0.10;;;12.50;99.90;;;;;;5071304;28;21038;-80
2023/07/06 04:16:54;;;;;;;0.10;0.10;;;12.60;99.90;;;;;;5093744;28;20282;-79
2023/07/06 04:19:21;;;;;;;0.10;0.10;;;12.60;99.90;;;;;;5091836;28;20471;-81
2023/07/06 04:21:47;;;;;;;0.10;0.10;;;12.60;99.90;;;;;;5088122;28;20434;-77
2023/07/06 04:24:13;;;;;;;0.10;0.10;;;12.60;99.90;;;;;;5087754;28;20457;-78
2023/07/06 04:26:40;;;;;;;0.10;0.10;;;12.60;99.90;;;;;;5086925;28;20496;-78
2023/07/06 04:29:10;;;;;;;0.10;0.10;;;12.70;99.90;;;;;;5087950;28;20185;-80
2023/07/06 04:31:36;;;;;;;0.10;0.10;;;12.70;99.90;;;;;;5086364;28;20462;-80
2023/07/06 04:34:03;;;;;;;0.13;0.13;;;12.80;99.90;;;;;;5083527;28;20459;-81
2023/07/06 04:36:31;;;;;;;0.10;0.10;;;12.80;99.90;;;;;;5080920;28;20891;-81
2023/07/06 04:38:58;;;;;;;0.10;0.10;;;12.80;99.90;;;;;;5092791;28;20488;-80
2023/07/06 04:41:25;;;;;;;0.10;0.10;;;12.80;99.90;;;;;;5091155;28;20435;-81
2023/07/06 04:43:52;;;;;;;0.13;0.13;;;12.80;99.90;;;;;;5090877;28;20473;-76
2023/07/06 04:46:20;;;;;;;0.10;0.10;;;12.80;99.90;;;;;;5098422;28;20521;-81
2023/07/06 04:48:47;;;;;;;0.10;0.10;;;12.80;99.90;;;;;;5087823;28;20505;-81
2023/07/06 04:51:12;;;;;;;0.10;0.10;;;12.80;99.90;;;;;;5084774;28;20475;-78
2023/07/06 04:53:38;;;;;;;0.10;0.10;;;12.90;99.90;;;;;;5091943;28;21076;-80
2023/07/06 04:56:04;;;;;;;0.10;0.10;;;13.00;99.90;;;;;;5093239;28;20887;-80
2023/07/06 04:58:30;;;;;;;0.10;0.10;;;13.10;99.90;;;;;;5084994;28;20454;-80
2023/07/06 05:01:02;;;;;;;0.10;0.10;;;13.10;99.90;;;;;;5087089;28;20513;-79
2023/07/06 05:03:30;;;;;;;0.10;0.10;;;13.30;99.90;;;;;;5086069;28;20181;-78
2023/07/06 05:06:00;;;;;;;0.10;0.10;;;13.30;99.90;;;;;;5068145;28;20848;-80
2023/07/06 05:08:27;;;;;;;0.10;0.10;;;13.40;99.90;;;;;;5089523;28;20450;-78
2023/07/06 05:10:53;;;;;;;0.10;0.10;;;13.30;99.90;;;;;;5069108;28;22293;-80
2023/07/06 05:13:20;;;;;;;0.10;0.10;;;13.40;99.90;;;;;;5086408;28;20488;-78
2023/07/06 05:15:48;;;;;;;0.10;0.10;;;13.40;99.90;;;;;;5084064;28;20446;-78
2023/07/06 05:18:14;;;;;;;0.10;0.10;;;13.40;99.90;;;;;;5071910;28;20439;-78
2023/07/06 05:20:40;;;;;;;0.10;0.10;;;13.40;99.90;;;;;;5086978;28;21045;-79
2023/07/06 05:23:08;;;;;;;0.10;0.10;;;13.40;99.90;;;;;;5090082;28;20683;-79
2023/07/06 05:25:35;;;;;;;0.10;0.10;;;13.50;99.90;;;;;;5087274;28;20538;-77
2023/07/06 05:28:00;;;;;;;0.10;0.10;;;13.60;99.90;;;;;;5068051;28;20440;-79
2023/07/06 05:30:27;;;;;;;0.10;0.10;;;13.60;99.90;;;;;;5086928;28;20780;-83
2023/07/06 05:32:52;;;;;;;0.10;0.10;;;13.50;99.90;;;;;;5067285;28;20580;-80
2023/07/06 05:35:18;;;;;;;0.10;0.10;;;13.40;99.90;;;;;;5068045;28;20439;-81
2023/07/06 05:37:44;;;;;;;0.10;0.10;;;13.30;99.90;;;;;;5084485;28;20200;-82
2023/07/06 05:40:10;;;;;;;0.10;0.10;;;13.30;99.90;;;;;;5089971;28;20847;-81
2023/07/06 05:42:36;;;;;;;0.10;0.10;;;13.30;99.90;;;;;;5093686;28;20205;-83
2023/07/06 05:45:01;;;;;;;0.10;0.10;;;13.30;99.90;;;;;;5094886;28;21137;-80
2023/07/06 05:47:27;;;;;;;0.10;0.10;;;13.40;99.90;;;;;;5090662;28;20678;-80
2023/07/06 05:49:53;;;;;;;0.10;0.10;;;13.40;99.90;;;;;;5094853;28;20200;-81
2023/07/06 05:52:18;;;;;;;0.10;0.10;;;13.50;99.90;;;;;;5079970;28;20798;-83
2023/07/06 05:54:44;;;;;;;0.10;0.10;;;13.70;99.90;;;;;;5089246;28;20953;-80
2023/07/06 05:57:16;;;;;;;0.10;0.10;;;14.00;99.90;;;;;;5075557;28;20263;-85
2023/07/06 05:59:42;;;;;;;0.10;0.10;;;14.20;99.90;;;;;;5080475;28;20617;-80
2023/07/06 06:02:09;;;;;;;0.10;0.10;;;14.40;99.90;;;;;;5085979;28;20548;-82
2023/07/06 06:04:37;;;;;;;0.10;0.10;;;14.50;99.90;;;;;;5070170;28;20185;-86
2023/07/06 06:07:06;;;;;;;0.10;0.10;;;14.40;99.90;;;;;;5084240;28;20443;-82
2023/07/06 06:09:33;;;;;;;0.10;0.10;;;14.40;99.90;;;;;;5076596;28;20969;-86
2023/07/06 06:11:59;;;;;;;0.20;0.10;;;14.30;99.90;;;;;;5073422;28;20478;-80
2023/07/06 06:14:24;;;;;;;0.10;0.10;;;14.40;99.90;;;;;;5071529;28;20428;-82
2023/07/06 06:16:50;;;;;;;0.10;0.10;;;14.60;99.90;;;;;;5087490;28;20958;-84
2023/07/06 06:19:16;;;;;;;0.10;0.10;;;14.50;99.90;;;;;;5070951;28;20224;-85
2023/07/06 06:21:41;;;;;;;0.10;0.10;;;14.50;99.90;;;;;;5079470;28;20194;-82
2023/07/06 06:24:09;;;;;;;0.20;0.20;;;14.50;99.90;;;;;;5072403;28;20196;-85
2023/07/06 06:26:35;;;;;;;0.10;0.10;;;14.70;99.90;;;;;;5087754;28;20181;-81
2023/07/06 06:29:02;;;;;;;0.10;0.10;;;14.60;99.90;;;;;;5090960;28;20820;-82
2023/07/06 06:31:28;;;;;;;0.10;0.10;;;14.60;99.90;;;;;;5092619;28;20470;-83
2023/07/06 06:33:54;;;;;;;0.10;0.10;;;14.70;99.90;;;;;;5088695;28;20454;-83
2023/07/06 06:36:20;;;;;;;0.10;0.10;;;14.80;99.90;;;;;;5074675;28;20842;-83
2023/07/06 06:38:46;;;;;;;0.10;0.10;;;14.90;99.90;;;;;;5072315;28;20587;-81
2023/07/06 06:41:12;;;;;;;0.10;0.10;;;15.10;99.90;;;;;;5089907;28;22075;-82
2023/07/06 06:43:39;;;;;;;0.10;0.10;;;15.10;99.90;;;;;;5088755;28;20534;-84
2023/07/06 06:46:05;;;;;;;0.10;0.10;;;15.20;99.90;;;;;;5084563;28;20428;-84
2023/07/06 06:48:32;;;;;;;0.10;0.10;;;15.20;99.90;;;;;;5091767;28;20961;-86
2023/07/06 06:50:59;;;;;;;0.10;0.10;;;15.30;99.90;;;;;;5088543;28;20440;-86
2023/07/06 06:53:26;;;;;;;0.10;0.10;;;15.20;99.90;;;;;;5092403;28;21029;-80
2023/07/06 06:55:52;;;;;;;0.10;0.10;;;15.10;99.90;;;;;;5092366;28;20481;-82
2023/07/06 06:58:18;;;;;;;0.10;0.10;;;15.00;99.90;;;;;;5092161;28;20447;-83
2023/07/06 07:00:44;;;;;;;0.10;0.10;;;15.10;99.90;;;;;;5089589;28;20439;-87
2023/07/06 07:03:11;;;;;;;0.10;0.10;;;15.10;99.90;;;;;;5070721;28;20469;-81
2023/07/06 07:05:37;;;;;;;0.10;0.10;;;15.20;99.90;;;;;;5090014;28;20222;-80
2023/07/06 07:08:03;;;;;;;0.10;0.10;;;15.10;99.90;;;;;;5088694;28;20447;-83
2023/07/06 07:10:29;;;;;;;0.10;0.10;;;15.30;99.90;;;;;;5084408;28;20189;-82
2023/07/06 07:12:55;;;;;;;0.10;0.10;;;15.40;99.90;;;;;;5083015;28;20228;-83
2023/07/06 07:15:21;;;;;;;0.10;0.10;;;15.60;99.90;;;;;;5090353;28;20434;-84
2023/07/06 07:17:46;;;;;;;0.10;0.10;;;15.80;99.90;;;;;;5089699;28;20185;-82
2023/07/06 07:20:13;;;;;;;0.10;0.10;;;15.80;99.90;;;;;;5089900;28;20192;-78
2023/07/06 07:22:39;;;;;;;0.10;0.10;;;15.70;99.90;;;;;;5085881;28;20207;-84
2023/07/06 07:25:06;;;;;;;0.10;0.10;;;15.60;99.90;;;;;;5073406;28;20439;-82
2023/07/06 07:27:34;;;;;;;0.10;0.10;;;15.50;99.90;;;;;;5070835;28;20443;-84
2023/07/06 07:30:01;;;;;;;0.10;0.10;;;15.40;99.90;;;;;;5068039;28;20449;-83
2023/07/06 07:32:29;;;;;;;0.10;0.10;;;15.40;99.90;;;;;;5072189;28;20485;-82
2023/07/06 07:34:56;;;;;;;0.10;0.10;;;15.50;99.90;;;;;;5068732;28;20442;-82
2023/07/06 07:37:21;;;;;;;0.10;0.10;;;15.70;99.90;;;;;;5089074;28;20471;-84
2023/07/06 07:39:48;;;;;;;0.10;0.10;;;15.90;99.90;;;;;;5089215;28;20498;-81
2023/07/06 07:42:16;;;;;;;0.10;0.10;;;15.90;99.90;;;;;;5083105;28;20261;-81
2023/07/06 07:44:44;;;;;;;0.10;0.10;;;16.00;99.90;;;;;;5091015;28;20522;-83
2023/07/06 07:47:10;;;;;;;0.10;0.10;;;16.00;99.90;;;;;;5088583;28;20439;-82
2023/07/06 07:49:37;;;;;;;0.10;0.10;;;16.10;99.90;;;;;;5086452;28;20452;-82
2023/07/06 07:52:03;;;;;;;0.10;0.10;;;16.30;99.90;;;;;;5068911;28;21033;-83
2023/07/06 07:54:30;;;;;;;0.10;0.10;;;16.40;99.90;;;;;;5087895;28;21125;-81
2023/07/06 07:56:56;;;;;;;0.10;0.10;;;16.60;99.90;;;;;;5088107;28;20443;-79
2023/07/06 07:59:23;;;;;;;0.10;0.10;;;16.90;99.90;;;;;;5092141;28;20832;-83
2023/07/06 08:01:50;;;;;;;0.10;0.10;;;16.90;99.90;;;;;;5088390;28;20583;-84
2023/07/06 08:04:16;;;;;;;0.10;0.10;;;17.20;99.90;;;;;;5088181;28;20985;-82
2023/07/06 08:06:42;;;;;;;0.10;0.10;;;17.30;99.90;;;;;;5091797;28;20891;-82
2023/07/06 08:09:09;;;;;;;0.10;0.10;;;17.20;99.90;;;;;;5070060;28;20492;-81
2023/07/06 08:11:38;;;;;;;0.10;0.10;;;17.00;99.90;;;;;;5089427;28;20204;-80
2023/07/06 08:14:08;;;;;;;0.10;0.10;;;16.90;99.90;;;;;;5071343;28;20459;-82
2023/07/06 08:16:34;;;;;;;0.10;0.10;;;16.70;99.90;;;;;;5071517;28;20484;-84
2023/07/06 08:19:03;;;;;;;0.10;0.10;;;16.60;99.90;;;;;;5092054;28;20419;-84
2023/07/06 08:21:29;;;;;;;0.10;0.10;;;16.40;99.90;;;;;;5063561;28;20444;-84
2023/07/06 08:23:57;;;;;;;0.10;0.10;;;16.30;99.90;;;;;;5087755;28;20529;-81
2023/07/06 08:26:23;;;;;;;0.10;0.10;;;15.90;99.90;;;;;;5087395;28;20661;-80
2023/07/06 08:28:49;;;;;;;0.10;0.10;;;15.50;99.90;;;;;;5096168;28;20456;-81
2023/07/06 08:31:18;;;;;;;0.10;0.10;;;15.30;99.90;;;;;;5086601;28;20811;-80
2023/07/06 08:33:46;;;;;;;0.10;0.10;;;15.10;99.90;;;;;;5099749;28;20192;-81
2023/07/06 08:36:14;;;;;;;0.10;0.10;;;15.10;99.90;;;;;;5094081;28;20460;-81
2023/07/06 08:38:39;;;;;;;0.10;0.10;;;15.10;99.90;;;;;;5082597;28;20910;-79
2023/07/06 08:41:44;;;;;;;0.10;0.10;;;15.10;99.90;;;;;;5088521;28;20530;-81
2023/07/06 08:44:12;;;;;;;0.10;0.10;;;15.20;99.90;;;;;;5065205;28;20620;-81
2023/07/06 08:46:47;;;;;;;0.10;0.10;;;15.40;99.90;;;;;;5097559;28;20816;-82
2023/07/06 08:49:32;;;;;;;0.10;0.10;;;15.40;99.90;;;;;;5063442;28;20515;-81
2023/07/06 08:52:02;;;;;;;0.10;0.10;;;15.50;99.90;;;;;;5091954;28;20479;-80
2023/07/06 08:54:28;;;;;;;0.10;0.10;;;15.80;99.90;;;;;;5088013;28;20496;-81
2023/07/06 08:56:54;;;;;;;0.10;0.10;;;16.00;99.90;;;;;;5084931;28;21589;-81
2023/07/06 08:59:43;;;;;;;0.10;0.10;;;16.10;99.90;;;;;;5085394;28;20477;-83
2023/07/06 09:02:21;;;;;;;0.10;0.10;;;16.00;99.90;;;;;;5086728;28;20435;-83
2023/07/06 09:04:50;;;;;;;0.10;0.10;;;16.00;99.90;;;;;;5097624;28;20439;-78
2023/07/06 09:07:17;;;;;;;0.10;0.10;;;15.90;99.90;;;;;;5089407;28;20961;-79
2023/07/06 09:09:45;;;;;;;0.10;0.10;;;15.60;99.90;;;;;;5084510;28;20442;-82
2023/07/06 09:12:24;;;;;;;0.10;0.10;;;15.30;99.90;;;;;;5077050;28;20508;-80
2023/07/06 09:14:51;;;;;;;0.10;0.10;;;15.00;99.90;;;;;;5081329;28;20431;-82
2023/07/06 09:17:17;;;;;;;0.00;0.00;;;14.90;99.90;;;;;;5071414;28;20464;-79
2023/07/06 09:19:44;;;;;;;0.10;0.10;;;14.80;99.90;;;;;;5086029;28;20926;-81
2023/07/06 09:22:10;;;;;;;0.10;0.10;;;14.90;99.90;;;;;;5071751;28;20446;-79
2023/07/06 09:24:36;;;;;;;0.10;0.10;;;14.90;99.90;;;;;;5088045;28;20451;-84
2023/07/06 09:27:23;;;;;;;0.10;0.10;;;15.00;99.90;;;;;;5084117;28;20490;-83
2023/07/06 09:30:16;;;;;;;0.10;0.10;;;15.20;99.90;;;;;;5088203;28;20229;-85
2023/07/06 09:32:42;;;;;;;0.10;0.10;;;15.40;99.90;;;;;;5079782;28;20487;-87
2023/07/06 09:35:20;;;;;;;0.10;0.10;;;15.50;99.90;;;;;;5081043;28;20457;-88
2023/07/06 09:37:46;;;;;;;0.10;0.10;;;15.60;99.90;;;;;;5097555;28;20609;-82
2023/07/06 09:40:14;;;;;;;0.10;0.10;;;15.70;99.90;;;;;;5072624;28;20814;-82
2023/07/06 09:42:40;;;;;;;0.10;0.10;;;15.70;99.90;;;;;;5083747;28;20492;-85
2023/07/06 09:45:27;;;;;;;0.10;0.10;;;15.80;99.90;;;;;;5086289;28;20571;-86
2023/07/06 09:48:01;;;;;;;0.10;0.10;;;15.80;99.90;;;;;;5067222;28;20443;-87
2023/07/06 09:50:40;;;;;;;0.10;0.10;;;15.80;99.90;;;;;;5068451;28;20522;-87
2023/07/06 09:53:11;;;;;;;0.10;0.10;;;15.90;99.90;;;;;;5067447;28;20510;-87
2023/07/06 09:55:37;;;;;;;0.10;0.10;;;15.90;99.90;;;;;;5079738;28;21038;-83
2023/07/06 09:58:07;;;;;;;0.10;0.10;;;15.90;99.90;;;;;;5081352;28;20455;-81
2023/07/06 10:00:42;;;;;;;0.00;0.00;;;16.00;99.90;;;;;;5071300;28;20182;-84
2023/07/06 10:03:34;;;;;;;0.10;0.10;;;16.00;99.90;;;;;;5085925;28;20449;-89
2023/07/06 10:06:07;;;;;;;0.10;0.10;;;16.10;99.90;;;;;;5069934;28;20447;-86
2023/07/06 10:08:46;;;;;;;0.10;0.10;;;16.20;99.90;;;;;;5080518;28;20473;-81
2023/07/06 10:11:28;;;;;;;0.10;0.10;;;16.40;99.90;;;;;;5096463;28;20431;-88
2023/07/06 10:14:09;;;;;;;0.10;0.10;;;16.60;99.90;;;;;;5067301;28;20832;-83
2023/07/06 10:17:01;;;;;;;0.10;0.10;;;17.10;99.90;;;;;;5070611;28;20469;-86
2023/07/06 10:19:37;;;;;;;0.10;0.10;;;17.00;99.90;;;;;;5066292;28;20484;-83
2023/07/06 10:22:10;;;;;;;0.10;0.10;;;16.80;99.90;;;;;;5063982;28;20517;-80
2023/07/06 10:25:12;;;;;;;0.10;0.10;;;16.70;99.90;;;;;;5083809;28;20946;-80
2023/07/06 10:27:45;;;;;;;0.10;0.10;;;16.60;99.90;;;;;;5083908;28;20442;-80
2023/07/06 10:30:22;;;;;;;0.10;0.10;;;16.60;99.90;;;;;;5088384;28;20471;-79
2023/07/06 10:32:51;;;;;;;0.10;0.10;;;16.60;99.90;;;;;;5085645;28;20484;-81
2023/07/06 10:35:30;;;;;;;0.10;0.10;;;16.60;99.90;;;;;;5079957;28;20431;-80
2023/07/06 10:37:56;;;;;;;0.10;0.10;;;16.70;99.90;;;;;;5088997;28;20910;-83
2023/07/06 10:40:27;;;;;;;0.10;0.10;;;16.90;99.90;;;;;;5086530;28;20437;-79
2023/07/06 10:43:13;;;;;;;0.10;0.10;;;17.30;99.90;;;;;;5086030;28;20431;-81
2023/07/06 10:45:46;;;;;;;0.10;0.10;;;17.80;99.90;;;;;;5055532;28;20447;-82
2023/07/06 10:48:32;;;;;;;0.10;0.10;;;17.90;99.90;;;;;;5086902;28;20498;-81
2023/07/06 10:51:22;;;;;;;0.10;0.10;;;17.70;99.90;;;;;;5081917;28;20446;-84
2023/07/06 10:54:12;;;;;;;0.10;0.10;;;17.40;99.90;;;;;;5087520;28;20443;-84
2023/07/06 10:56:47;;;;;;;0.10;0.10;;;17.20;99.90;;;;;;5066697;28;20530;-84
2023/07/06 10:59:23;;;;;;;0.10;0.10;;;17.20;99.90;;;;;;5061067;28;20446;-81
2023/07/06 11:02:11;;;;;;;0.10;0.10;;;17.20;99.90;;;;;;5084275;28;20430;-82
2023/07/06 11:04:39;;;;;;;0.10;0.10;;;17.40;99.90;;;;;;5077689;28;20805;-78
2023/07/06 11:07:09;;;;;;;0.10;0.10;;;17.80;99.90;;;;;;5083734;28;20485;-79
2023/07/06 11:10:13;;;;;;;0.10;0.10;;;18.60;99.90;;;;;;5091881;28;20477;-79
2023/07/06 11:13:02;;;;;;;0.10;0.10;;;20.40;99.90;;;;;;5092898;28;20478;-80
2023/07/06 11:15:38;;;;;;;0.10;0.00;;;21.40;99.90;;;;;;5087960;28;20446;-82
2023/07/06 11:18:32;;;;;;;0.10;0.00;;;20.60;99.90;;;;;;5074880;28;20968;-82
2023/07/06 11:21:02;;;;;;;0.10;0.00;;;20.00;99.90;;;;;;5089020;28;20443;-81
2023/07/06 11:23:41;;;;;;;0.10;0.00;;;20.60;99.90;;;;;;5091088;28;20558;-81
2023/07/06 11:26:18;;;;;;;0.10;0.00;;;21.40;99.90;;;;;;5087628;28;20442;-80
2023/07/06 11:28:44;;;;;;;0.10;0.00;;;22.40;99.90;;;;;;5086056;28;20491;-81
2023/07/06 11:31:34;;;;;;;0.10;0.00;;;23.10;99.90;;;;;;5089284;28;20454;-84
2023/07/06 11:34:17;;;;;;;0.10;0.00;;;23.10;99.90;;;;;;5094414;28;20527;-81
2023/07/06 11:37:12;;;;;;;0.10;0.00;;;23.00;99.90;;;;;;5078188;28;20486;-81
2023/07/06 11:40:00;;;;;;;0.10;0.00;;;23.90;99.90;;;;;;5085453;28;20474;-83
2023/07/06 11:42:31;;;;;;;0.10;0.00;;;24.50;99.90;;;;;;5090970;28;20530;-79
2023/07/06 11:45:04;;;;;;;0.10;0.00;;;24.60;99.90;;;;;;5084427;28;20447;-79
2023/07/06 11:47:45;;;;;;;0.10;0.00;;;24.40;99.90;;;;;;5080148;28;21050;-82
2023/07/06 11:50:14;;;;;;;0.10;0.00;;;23.40;99.90;;;;;;5089497;28;20452;-83
2023/07/06 11:52:45;;;;;;;0.10;0.00;;;23.10;99.90;;;;;;5086941;28;20495;-80
2023/07/06 11:55:33;;;;;;;0.10;0.00;;;23.80;99.90;;;;;;5087531;28;20479;-82
2023/07/06 11:58:21;;;;;;;0.10;0.00;;;24.00;99.90;;;;;;5058649;28;20447;-79
2023/07/06 12:00:53;;;;;;;0.10;0.00;;;24.50;99.90;;;;;;5088247;28;20446;-80
2023/07/06 12:03:25;;;;;;;0.10;0.00;;;24.20;99.90;;;;;;5071624;28;20482;-79
2023/07/06 12:05:55;;;;;;;0.10;0.00;;;23.30;99.90;;;;;;5077931;28;20451;-82
2023/07/06 12:08:27;;;;;;;0.10;0.00;;;22.80;99.90;;;;;;5084856;28;20459;-81
2023/07/06 12:10:59;;;;;;;0.10;0.00;;;22.30;99.90;;;;;;5068233;28;20622;-81
2023/07/06 12:13:37;;;;;;;0.10;0.00;;;21.90;99.90;;;;;;5086857;28;21031;-81
2023/07/06 12:16:07;;;;;;;0.10;0.00;;;22.70;99.90;;;;;;5083313;28;20534;-81
2023/07/06 12:18:33;;;;;;;0.10;0.00;;;21.90;99.90;;;;;;5079088;28;20478;-81
2023/07/06 12:21:00;;;;;;;0.10;0.10;;;21.30;99.90;;;;;;5071277;28;20443;-83
2023/07/06 12:23:26;;;;;;;0.10;0.00;;;20.70;99.90;;;;;;5086362;28;20450;-80
2023/07/06 12:25:55;;;;;;;0.10;0.00;;;20.70;99.90;;;;;;5084768;28;20450;-81
2023/07/06 12:28:24;;;;;;;0.10;0.00;;;21.50;99.90;;;;;;5088571;28;20431;-81
2023/07/06 12:30:52;;;;;;;0.10;0.00;;;22.20;99.90;;;;;;5087558;28;20458;-81
2023/07/06 12:33:20;;;;;;;0.10;0.00;;;22.80;99.90;;;;;;5068961;28;21012;-79
2023/07/06 12:35:47;;;;;;;0.10;0.00;;;22.30;99.90;;;;;;5084608;28;20490;-81
2023/07/06 12:38:19;;;;;;;0.10;0.00;;;21.80;99.90;;;;;;5094787;28;20474;-82
2023/07/06 12:40:46;;;;;;;0.10;0.00;;;21.50;99.90;;;;;;5094703;28;20436;-82
2023/07/06 12:43:29;;;;;;;0.10;0.00;;;21.40;99.90;;;;;;5086426;28;20438;-84
2023/07/06 12:45:55;;;;;;;0.10;0.00;;;21.20;99.90;;;;;;5085311;28;20785;-81
2023/07/06 12:48:24;;;;;;;0.10;0.00;;;21.10;99.90;;;;;;5072417;28;20443;-82
2023/07/06 12:50:54;;;;;;;0.10;0.00;;;21.40;99.90;;;;;;5074608;28;20475;-85
2023/07/06 12:53:29;;;;;;;0.10;0.00;;;22.10;99.90;;;;;;5084826;28;22126;-82
2023/07/06 12:56:06;;;;;;;0.10;0.00;;;23.00;99.90;;;;;;5088237;28;21230;-83
2023/07/06 12:58:34;;;;;;;0.10;0.00;;;23.50;99.90;;;;;;5060075;28;20452;-82
2023/07/06 13:01:17;;;;;;;0.10;0.00;;;24.30;99.90;;;;;;5084871;28;20435;-79
2023/07/06 13:03:47;;;;;;;0.10;0.10;;;24.80;99.90;;;;;;5070779;28;20810;-81
2023/07/06 13:06:15;;;;;;;0.10;0.00;;;25.10;99.90;;;;;;5091065;28;20463;-81